sensor_id;sensor_type;location;lat;lon;timestamp;pressure;altitude;pressure_sealevel;temperature;humidity
68822;BME280;55834;50.870;4.606;2024-03-08T00:01:47;100873.59;;;3.93;49.79
68822;BME280;55834;50.870;4.606;2024-03-08T00:04:12;100857.06;;;4.27;50.11
68822;BME280;55834;50.870;4.606;2024-03-08T00:06:38;100867.38;;;3.32;51.52
68822;BME280;55834;50.870;4.606;2024-03-08T00:09:05;100857.94;;;3.99;50.57
68822;BME280;55834;50.870;4.606;2024-03-08T00:11:33;100855.31;;;4.19;49.80
68822;BME280;55834;50.870;4.606;2024-03-08T00:13:59;100850.09;;;3.97;49.47
68822;BME280;55834;50.870;4.606;2024-03-08T00:16:24;100846.59;;;4.20;49.47
68822;BME280;55834;50.870;4.606;2024-03-08T00:18:49;100857.94;;;3.99;49.94
68822;BME280;55834;50.870;4.606;2024-03-08T00:21:15;100848.34;;;4.05;49.11
68822;BME280;55834;50.870;4.606;2024-03-08T00:23:40;100856.97;;;3.45;51.64
68822;BME280;55834;50.870;4.606;2024-03-08T00:26:06;100842.25;;;4.05;49.85
68822;BME280;55834;50.870;4.606;2024-03-08T00:28:32;100848.34;;;4.39;49.34
68822;BME280;55834;50.870;4.606;2024-03-08T00:30:59;100848.34;;;3.72;50.76
68822;BME280;55834;50.870;4.606;2024-03-08T00:33:25;100836.16;;;4.17;49.81
68822;BME280;55834;50.870;4.606;2024-03-08T00:35:50;100835.28;;;3.99;49.87
68822;BME280;55834;50.870;4.606;2024-03-08T00:38:16;100845.41;;;2.86;51.88
68822;BME280;55834;50.870;4.606;2024-03-08T00:40:41;100841.31;;;3.46;51.45
68822;BME280;55834;50.870;4.606;2024-03-08T00:43:07;100840.50;;;3.78;49.97
68822;BME280;55834;50.870;4.606;2024-03-08T00:45:32;100837.84;;;3.55;50.50
68822;BME280;55834;50.870;4.606;2024-03-08T00:47:58;100837.88;;;3.59;51.74
68822;BME280;55834;50.870;4.606;2024-03-08T00:50:23;100834.41;;;3.99;50.74
68822;BME280;55834;50.870;4.606;2024-03-08T00:52:48;100842.88;;;3.04;51.85
68822;BME280;55834;50.870;4.606;2024-03-08T00:55:14;100835.22;;;3.49;52.40
68822;BME280;55834;50.870;4.606;2024-03-08T00:57:40;100823.97;;;3.90;50.84
68822;BME280;55834;50.870;4.606;2024-03-08T01:00:06;100823.97;;;4.05;49.97
68822;BME280;55834;50.870;4.606;2024-03-08T01:02:38;100822.22;;;4.02;49.91
68822;BME280;55834;50.870;4.606;2024-03-08T01:05:03;100817.00;;;3.90;50.63
68822;BME280;55834;50.870;4.606;2024-03-08T01:07:33;100815.22;;;3.43;50.40
68822;BME280;55834;50.870;4.606;2024-03-08T01:09:59;100816.84;;;3.18;50.49
68822;BME280;55834;50.870;4.606;2024-03-08T01:12:26;100810.03;;;3.92;50.73
68822;BME280;55834;50.870;4.606;2024-03-08T01:14:51;100804.81;;;4.00;49.26
68822;BME280;55834;50.870;4.606;2024-03-08T01:17:17;100804.84;;;4.03;48.95
68822;BME280;55834;50.870;4.606;2024-03-08T01:19:42;100806.50;;;4.31;49.43
68822;BME280;55834;50.870;4.606;2024-03-08T01:22:10;100806.56;;;3.95;49.06
68822;BME280;55834;50.870;4.606;2024-03-08T01:24:35;100801.28;;;3.53;49.23
68822;BME280;55834;50.870;4.606;2024-03-08T01:27:00;100804.81;;;3.91;49.53
68822;BME280;55834;50.870;4.606;2024-03-08T01:29:26;100789.16;;;3.80;48.79
68822;BME280;55834;50.870;4.606;2024-03-08T01:31:55;100800.44;;;3.73;49.12
68822;BME280;55834;50.870;4.606;2024-03-08T01:34:21;100796.91;;;3.31;50.13
68822;BME280;55834;50.870;4.606;2024-03-08T01:36:48;100789.81;;;2.99;50.39
68822;BME280;55834;50.870;4.606;2024-03-08T01:39:13;100792.84;;;2.17;53.06
68822;BME280;55834;50.870;4.606;2024-03-08T01:41:39;100784.72;;;3.22;52.69
68822;BME280;55834;50.870;4.606;2024-03-08T01:44:05;100782.03;;;3.11;51.62
68822;BME280;55834;50.870;4.606;2024-03-08T01:46:33;100783.84;;;3.25;50.51
68822;BME280;55834;50.870;4.606;2024-03-08T01:48:59;100776.78;;;3.01;50.89
68822;BME280;55834;50.870;4.606;2024-03-08T01:51:26;100773.44;;;3.45;49.33
68822;BME280;55834;50.870;4.606;2024-03-08T01:53:55;100766.44;;;3.27;50.51
68822;BME280;55834;50.870;4.606;2024-03-08T01:56:23;100764.63;;;3.09;50.71
68822;BME280;55834;50.870;4.606;2024-03-08T01:58:50;100765.63;;;3.52;50.36
68822;BME280;55834;50.870;4.606;2024-03-08T02:01:16;100761.88;;;2.72;51.13
68822;BME280;55834;50.870;4.606;2024-03-08T02:03:42;100768.91;;;1.54;53.58
68822;BME280;55834;50.870;4.606;2024-03-08T02:06:11;100759.94;;;2.31;52.76
68822;BME280;55834;50.870;4.606;2024-03-08T02:08:37;100760.22;;;2.89;50.90
68822;BME280;55834;50.870;4.606;2024-03-08T02:11:03;100749.03;;;3.30;50.97
68822;BME280;55834;50.870;4.606;2024-03-08T02:13:29;100748.03;;;2.90;50.26
68822;BME280;55834;50.870;4.606;2024-03-08T02:16:01;100747.94;;;2.64;52.16
68822;BME280;55834;50.870;4.606;2024-03-08T02:18:27;100733.34;;;3.10;51.60
68822;BME280;55834;50.870;4.606;2024-03-08T02:20:55;100748.22;;;3.34;50.07
68822;BME280;55834;50.870;4.606;2024-03-08T02:23:21;100732.53;;;3.24;50.15
68822;BME280;55834;50.870;4.606;2024-03-08T02:25:49;100733.19;;;2.63;51.31
68822;BME280;55834;50.870;4.606;2024-03-08T02:28:16;100729.78;;;2.87;49.79
68822;BME280;55834;50.870;4.606;2024-03-08T02:30:44;100733.41;;;3.32;49.88
68822;BME280;55834;50.870;4.606;2024-03-08T02:33:09;100728.19;;;3.23;49.37
68822;BME280;55834;50.870;4.606;2024-03-08T02:35:35;100724.63;;;3.08;49.01
68822;BME280;55834;50.870;4.606;2024-03-08T02:38:02;100714.19;;;3.13;50.24
68822;BME280;55834;50.870;4.606;2024-03-08T02:40:29;100725.25;;;2.38;52.10
68822;BME280;55834;50.870;4.606;2024-03-08T02:42:54;100715.06;;;3.03;50.50
68822;BME280;55834;50.870;4.606;2024-03-08T02:45:19;100711.66;;;3.31;50.13
68822;BME280;55834;50.870;4.606;2024-03-08T02:47:45;100711.50;;;2.73;51.12
68822;BME280;55834;50.870;4.606;2024-03-08T02:50:11;100714.63;;;2.01;52.03
68822;BME280;55834;50.870;4.606;2024-03-08T02:52:37;100708.81;;;2.50;52.53
68822;BME280;55834;50.870;4.606;2024-03-08T02:55:02;100701.94;;;2.81;51.76
68822;BME280;55834;50.870;4.606;2024-03-08T02:57:28;100702.00;;;3.01;51.13
68822;BME280;55834;50.870;4.606;2024-03-08T02:59:54;100705.47;;;2.99;50.16
68822;BME280;55834;50.870;4.606;2024-03-08T03:02:19;100685.56;;;3.27;48.81
68822;BME280;55834;50.870;4.606;2024-03-08T03:04:45;100703.66;;;2.65;51.00
68822;BME280;55834;50.870;4.606;2024-03-08T03:07:10;100695.88;;;2.76;50.84
68822;BME280;55834;50.870;4.606;2024-03-08T03:09:36;100691.59;;;3.06;50.03
68822;BME280;55834;50.870;4.606;2024-03-08T03:12:02;100682.94;;;3.21;49.35
68822;BME280;55834;50.870;4.606;2024-03-08T03:14:27;100690.72;;;3.17;49.21
68822;BME280;55834;50.870;4.606;2024-03-08T03:16:53;100688.16;;;3.30;49.07
68822;BME280;55834;50.870;4.606;2024-03-08T03:19:20;100687.22;;;3.03;49.98
68822;BME280;55834;50.870;4.606;2024-03-08T03:21:45;100685.44;;;2.82;49.10
68822;BME280;55834;50.870;4.606;2024-03-08T03:24:11;100679.41;;;3.09;49.50
68822;BME280;55834;50.870;4.606;2024-03-08T03:26:38;100671.66;;;3.25;48.94
68822;BME280;55834;50.870;4.606;2024-03-08T03:29:05;100677.47;;;2.38;51.85
68822;BME280;55834;50.870;4.606;2024-03-08T03:31:31;100675.75;;;2.35;52.17
68822;BME280;55834;50.870;4.606;2024-03-08T03:33:57;100673.25;;;2.72;50.66
68822;BME280;55834;50.870;4.606;2024-03-08T03:36:31;100671.50;;;2.62;50.49
68822;BME280;55834;50.870;4.606;2024-03-08T03:38:56;100662.03;;;2.96;49.78
68822;BME280;55834;50.870;4.606;2024-03-08T03:41:31;100667.81;;;2.09;51.10
68822;BME280;55834;50.870;4.606;2024-03-08T03:43:56;100662.59;;;2.12;51.56
68822;BME280;55834;50.870;4.606;2024-03-08T03:46:22;100655.69;;;2.19;51.25
68822;BME280;55834;50.870;4.606;2024-03-08T03:48:48;100648.00;;;2.51;50.75
68822;BME280;55834;50.870;4.606;2024-03-08T03:51:13;100649.81;;;2.77;50.75
68822;BME280;55834;50.870;4.606;2024-03-08T03:53:40;100642.72;;;2.36;51.17
68822;BME280;55834;50.870;4.606;2024-03-08T03:56:06;100640.13;;;2.33;52.58
68822;BME280;55834;50.870;4.606;2024-03-08T03:58:32;100638.44;;;2.44;50.26
68822;BME280;55834;50.870;4.606;2024-03-08T04:00:58;100643.69;;;2.59;50.99
68822;BME280;55834;50.870;4.606;2024-03-08T04:03:23;100637.63;;;2.65;50.41
68822;BME280;55834;50.870;4.606;2024-03-08T04:05:49;100645.94;;;1.84;51.50
68822;BME280;55834;50.870;4.606;2024-03-08T04:08:14;100630.63;;;2.47;50.96
68822;BME280;55834;50.870;4.606;2024-03-08T04:10:40;100631.44;;;2.34;50.84
68822;BME280;55834;50.870;4.606;2024-03-08T04:13:07;100631.41;;;2.31;50.28
68822;BME280;55834;50.870;4.606;2024-03-08T04:15:34;100615.91;;;2.78;51.20
68822;BME280;55834;50.870;4.606;2024-03-08T04:18:00;100619.38;;;2.74;50.52
68822;BME280;55834;50.870;4.606;2024-03-08T04:20:26;100625.41;;;2.58;50.48
68822;BME280;55834;50.870;4.606;2024-03-08T04:22:51;100621.09;;;2.69;50.92
68822;BME280;55834;50.870;4.606;2024-03-08T04:25:17;100628.94;;;2.61;50.17
68822;BME280;55834;50.870;4.606;2024-03-08T04:27:42;100618.50;;;2.81;49.87
68822;BME280;55834;50.870;4.606;2024-03-08T04:30:08;100623.69;;;2.66;50.05
68822;BME280;55834;50.870;4.606;2024-03-08T04:32:34;100614.16;;;2.71;50.10
68822;BME280;55834;50.870;4.606;2024-03-08T04:35:00;100604.59;;;2.84;50.00
68822;BME280;55834;50.870;4.606;2024-03-08T04:37:29;100614.97;;;2.47;50.45
68822;BME280;55834;50.870;4.606;2024-03-08T04:39:57;100613.28;;;2.66;50.97
68822;BME280;55834;50.870;4.606;2024-03-08T04:42:23;100614.13;;;2.54;50.40
68822;BME280;55834;50.870;4.606;2024-03-08T04:44:49;100608.06;;;2.69;49.40
68822;BME280;55834;50.870;4.606;2024-03-08T04:47:14;100616.56;;;2.10;51.07
68822;BME280;55834;50.870;4.606;2024-03-08T04:49:39;100610.63;;;2.47;50.88
68822;BME280;55834;50.870;4.606;2024-03-08T04:52:05;100601.06;;;2.51;50.40
68822;BME280;55834;50.870;4.606;2024-03-08T04:54:32;100596.78;;;2.81;50.46
68822;BME280;55834;50.870;4.606;2024-03-08T04:56:58;100589.81;;;2.78;49.21
68822;BME280;55834;50.870;4.606;2024-03-08T04:59:26;100590.50;;;2.02;51.58
68822;BME280;55834;50.870;4.606;2024-03-08T05:01:52;100585.41;;;2.36;51.40
68822;BME280;55834;50.870;4.606;2024-03-08T05:04:17;100589.72;;;2.31;51.07
68822;BME280;55834;50.870;4.606;2024-03-08T05:06:42;100582.84;;;2.57;50.31
68822;BME280;55834;50.870;4.606;2024-03-08T05:09:08;100587.09;;;2.23;50.88
68822;BME280;55834;50.870;4.606;2024-03-08T05:11:40;100581.75;;;1.83;51.71
68822;BME280;55834;50.870;4.606;2024-03-08T05:14:06;100582.84;;;2.48;50.51
68822;BME280;55834;50.870;4.606;2024-03-08T05:16:31;100576.75;;;2.49;50.54
68822;BME280;55834;50.870;4.606;2024-03-08T05:18:56;100568.97;;;2.72;49.81
68822;BME280;55834;50.870;4.606;2024-03-08T05:21:22;100565.47;;;2.47;50.10
68822;BME280;55834;50.870;4.606;2024-03-08T05:23:48;100566.13;;;1.89;51.16
68822;BME280;55834;50.870;4.606;2024-03-08T05:26:15;100571.47;;;2.21;51.07
68822;BME280;55834;50.870;4.606;2024-03-08T05:28:41;100566.31;;;2.41;50.36
68822;BME280;55834;50.870;4.606;2024-03-08T05:31:06;100563.41;;;1.63;51.81
68822;BME280;55834;50.870;4.606;2024-03-08T05:33:32;100562.78;;;2.25;50.72
68822;BME280;55834;50.870;4.606;2024-03-08T05:35:59;100558.47;;;2.37;50.65
68822;BME280;55834;50.870;4.606;2024-03-08T05:38:26;100555.94;;;2.66;50.65
68822;BME280;55834;50.870;4.606;2024-03-08T05:40:51;100555.94;;;2.61;50.06
68822;BME280;55834;50.870;4.606;2024-03-08T05:43:17;100554.19;;;2.71;50.60
68822;BME280;55834;50.870;4.606;2024-03-08T05:45:45;100555.06;;;2.65;49.63
68822;BME280;55834;50.870;4.606;2024-03-08T05:48:10;100544.63;;;2.56;50.64
68822;BME280;55834;50.870;4.606;2024-03-08T05:50:37;100543.75;;;2.54;50.47
68822;BME280;55834;50.870;4.606;2024-03-08T05:53:04;100546.19;;;1.93;50.86
68822;BME280;55834;50.870;4.606;2024-03-08T05:55:34;100537.56;;;2.08;51.87
68822;BME280;55834;50.870;4.606;2024-03-08T05:58:03;100544.59;;;2.39;50.90
68822;BME280;55834;50.870;4.606;2024-03-08T06:00:28;100540.25;;;2.52;51.12
68822;BME280;55834;50.870;4.606;2024-03-08T06:02:53;100542.03;;;2.59;50.70
68822;BME280;55834;50.870;4.606;2024-03-08T06:05:19;100535.03;;;2.34;50.91
68822;BME280;55834;50.870;4.606;2024-03-08T06:07:44;100535.06;;;2.55;50.97
68822;BME280;55834;50.870;4.606;2024-03-08T06:10:11;100540.25;;;2.46;50.15
68822;BME280;55834;50.870;4.606;2024-03-08T06:12:39;100539.41;;;2.50;50.27
68822;BME280;55834;50.870;4.606;2024-03-08T06:15:09;100536.78;;;2.36;51.10
68822;BME280;55834;50.870;4.606;2024-03-08T06:17:38;100536.66;;;1.95;52.40
68822;BME280;55834;50.870;4.606;2024-03-08T06:20:03;100531.53;;;2.25;51.11
68822;BME280;55834;50.870;4.606;2024-03-08T06:22:36;100530.72;;;2.45;50.75
68822;BME280;55834;50.870;4.606;2024-03-08T06:25:02;100535.94;;;2.66;50.12
68822;BME280;55834;50.870;4.606;2024-03-08T06:27:27;100532.47;;;2.58;49.89
68822;BME280;55834;50.870;4.606;2024-03-08T06:29:53;100538.53;;;2.42;49.59
68822;BME280;55834;50.870;4.606;2024-03-08T06:32:18;100528.09;;;2.48;49.54
68822;BME280;55834;50.870;4.606;2024-03-08T06:34:44;100532.47;;;2.66;49.96
68822;BME280;55834;50.870;4.606;2024-03-08T06:37:09;100528.06;;;2.31;50.51
68822;BME280;55834;50.870;4.606;2024-03-08T06:39:34;100525.34;;;1.97;50.68
68822;BME280;55834;50.870;4.606;2024-03-08T06:42:01;100521.06;;;2.12;52.07
68822;BME280;55834;50.870;4.606;2024-03-08T06:44:26;100518.56;;;2.44;50.93
68822;BME280;55834;50.870;4.606;2024-03-08T06:46:52;100515.97;;;2.71;50.28
68822;BME280;55834;50.870;4.606;2024-03-08T06:49:17;100511.63;;;2.58;50.30
68822;BME280;55834;50.870;4.606;2024-03-08T06:51:43;100505.53;;;2.68;49.88
68822;BME280;55834;50.870;4.606;2024-03-08T06:54:08;100504.66;;;2.59;49.55
68822;BME280;55834;50.870;4.606;2024-03-08T06:56:37;100502.94;;;2.44;49.81
68822;BME280;55834;50.870;4.606;2024-03-08T06:59:03;100509.63;;;1.71;52.35
68822;BME280;55834;50.870;4.606;2024-03-08T07:01:29;100504.59;;;2.19;52.41
68822;BME280;55834;50.870;4.606;2024-03-08T07:04:00;100503.50;;;1.55;51.86
68822;BME280;55834;50.870;4.606;2024-03-08T07:06:30;100488.03;;;2.00;52.34
68822;BME280;55834;50.870;4.606;2024-03-08T07:08:58;100486.34;;;2.17;50.98
68822;BME280;55834;50.870;4.606;2024-03-08T07:11:24;100489.03;;;2.49;51.82
68822;BME280;55834;50.870;4.606;2024-03-08T07:13:49;100493.38;;;2.72;50.94
68822;BME280;55834;50.870;4.606;2024-03-08T07:16:15;100480.25;;;2.03;51.41
68822;BME280;55834;50.870;4.606;2024-03-08T07:18:41;100486.41;;;2.60;50.46
68822;BME280;55834;50.870;4.606;2024-03-08T07:21:08;100479.44;;;3.02;49.89
68822;BME280;55834;50.870;4.606;2024-03-08T07:23:34;100476.81;;;2.32;50.37
68822;BME280;55834;50.870;4.606;2024-03-08T07:26:15;100474.25;;;2.81;50.10
68822;BME280;55834;50.870;4.606;2024-03-08T07:28:41;100471.63;;;2.90;50.36
68822;BME280;55834;50.870;4.606;2024-03-08T07:31:06;100473.34;;;3.03;49.62
68822;BME280;55834;50.870;4.606;2024-03-08T07:33:58;100471.47;;;3.67;49.30
68822;BME280;55834;50.870;4.606;2024-03-08T07:36:24;100466.25;;;3.68;48.44
68822;BME280;55834;50.870;4.606;2024-03-08T07:38:49;100460.03;;;3.88;47.87
68822;BME280;55834;50.870;4.606;2024-03-08T07:41:15;100459.06;;;4.07;47.43
68822;BME280;55834;50.870;4.606;2024-03-08T07:43:41;100449.47;;;4.07;47.49
68822;BME280;55834;50.870;4.606;2024-03-08T07:46:06;100465.09;;;4.21;47.74
68822;BME280;55834;50.870;4.606;2024-03-08T07:48:35;100474.22;;;3.04;47.93
68822;BME280;55834;50.870;4.606;2024-03-08T07:51:01;100458.47;;;3.53;48.59
68822;BME280;55834;50.870;4.606;2024-03-08T07:53:28;100455.69;;;3.90;48.32
68822;BME280;55834;50.870;4.606;2024-03-08T07:55:53;100450.34;;;4.13;48.17
68822;BME280;55834;50.870;4.606;2024-03-08T07:58:19;100447.06;;;3.74;46.76
68822;BME280;55834;50.870;4.606;2024-03-08T08:00:44;100446.59;;;4.47;48.14
68822;BME280;55834;50.870;4.606;2024-03-08T08:03:10;100447.31;;;4.65;46.58
68822;BME280;55834;50.870;4.606;2024-03-08T08:05:35;100447.06;;;4.95;45.71
68822;BME280;55834;50.870;4.606;2024-03-08T08:08:02;100439.25;;;4.91;44.97
68822;BME280;55834;50.870;4.606;2024-03-08T08:10:32;100443.19;;;5.33;46.49
68822;BME280;55834;50.870;4.606;2024-03-08T08:12:58;100433.44;;;5.48;44.40
68822;BME280;55834;50.870;4.606;2024-03-08T08:15:23;100433.38;;;5.51;44.85
68822;BME280;55834;50.870;4.606;2024-03-08T08:17:49;100428.88;;;5.62;44.39
68822;BME280;55834;50.870;4.606;2024-03-08T08:20:14;100426.16;;;5.70;43.95
68822;BME280;55834;50.870;4.606;2024-03-08T08:22:40;100412.31;;;5.58;43.45
68822;BME280;55834;50.870;4.606;2024-03-08T08:25:09;100424.25;;;5.82;43.26
68822;BME280;55834;50.870;4.606;2024-03-08T08:27:38;100410.19;;;5.86;43.57
68822;BME280;55834;50.870;4.606;2024-03-08T08:30:05;100407.91;;;5.63;43.46
68822;BME280;55834;50.870;4.606;2024-03-08T08:32:36;100410.97;;;5.95;43.71
68822;BME280;55834;50.870;4.606;2024-03-08T08:35:02;100408.09;;;6.10;43.61
68822;BME280;55834;50.870;4.606;2024-03-08T08:37:30;100393.13;;;6.18;43.45
68822;BME280;55834;50.870;4.606;2024-03-08T08:39:56;100401.84;;;6.20;43.12
68822;BME280;55834;50.870;4.606;2024-03-08T08:42:23;100396.28;;;6.40;42.31
68822;BME280;55834;50.870;4.606;2024-03-08T08:44:48;100386.34;;;6.05;41.73
68822;BME280;55834;50.870;4.606;2024-03-08T08:47:14;100385.16;;;6.24;43.07
68822;BME280;55834;50.870;4.606;2024-03-08T08:49:44;100387.50;;;6.41;43.37
68822;BME280;55834;50.870;4.606;2024-03-08T08:52:11;100386.13;;;6.20;42.58
68822;BME280;55834;50.870;4.606;2024-03-08T08:54:36;100370.72;;;6.51;42.66
68822;BME280;55834;50.870;4.606;2024-03-08T08:57:02;100376.31;;;6.31;41.78
68822;BME280;55834;50.870;4.606;2024-03-08T08:59:35;100373.13;;;6.13;42.79
68822;BME280;55834;50.870;4.606;2024-03-08T09:02:06;100369.03;;;6.49;41.87
68822;BME280;55834;50.870;4.606;2024-03-08T09:04:32;100364.59;;;6.51;41.96
68822;BME280;55834;50.870;4.606;2024-03-08T09:06:57;100363.94;;;5.85;42.75
68822;BME280;55834;50.870;4.606;2024-03-08T09:09:23;100363.16;;;6.34;43.29
68822;BME280;55834;50.870;4.606;2024-03-08T09:11:50;100371.72;;;5.92;41.94
68822;BME280;55834;50.870;4.606;2024-03-08T09:14:16;100362.28;;;6.34;42.38
68822;BME280;55834;50.870;4.606;2024-03-08T09:16:41;100351.97;;;6.76;42.35
68822;BME280;55834;50.870;4.606;2024-03-08T09:19:07;100357.91;;;6.34;42.76
68822;BME280;55834;50.870;4.606;2024-03-08T09:21:33;100347.22;;;6.45;41.76
68822;BME280;55834;50.870;4.606;2024-03-08T09:24:00;100340.34;;;6.88;42.65
68822;BME280;55834;50.870;4.606;2024-03-08T09:26:26;100338.47;;;6.94;41.06
68822;BME280;55834;50.870;4.606;2024-03-08T09:28:52;100337.84;;;7.25;41.44
68822;BME280;55834;50.870;4.606;2024-03-08T09:31:17;100330.53;;;6.97;42.24
68822;BME280;55834;50.870;4.606;2024-03-08T09:33:43;100326.00;;;7.06;41.31
68822;BME280;55834;50.870;4.606;2024-03-08T09:36:08;100324.69;;;7.27;40.56
68822;BME280;55834;50.870;4.606;2024-03-08T09:38:33;100323.31;;;7.49;40.68
68822;BME280;55834;50.870;4.606;2024-03-08T09:41:02;100320.31;;;7.67;39.25
68822;BME280;55834;50.870;4.606;2024-03-08T09:43:29;100312.16;;;7.78;39.96
68822;BME280;55834;50.870;4.606;2024-03-08T09:45:57;100298.78;;;7.87;39.83
68822;BME280;55834;50.870;4.606;2024-03-08T09:48:22;100301.81;;;7.33;40.53
68822;BME280;55834;50.870;4.606;2024-03-08T09:50:48;100296.97;;;7.54;39.96
68822;BME280;55834;50.870;4.606;2024-03-08T09:53:14;100298.16;;;7.78;39.18
68822;BME280;55834;50.870;4.606;2024-03-08T09:55:40;100296.81;;;7.97;39.40
68822;BME280;55834;50.870;4.606;2024-03-08T09:58:12;100285.00;;;8.15;39.64
68822;BME280;55834;50.870;4.606;2024-03-08T10:00:47;100283.78;;;7.55;39.77
68822;BME280;55834;50.870;4.606;2024-03-08T10:03:13;100275.84;;;7.94;40.40
68822;BME280;55834;50.870;4.606;2024-03-08T10:05:40;100270.69;;;7.91;38.92
68822;BME280;55834;50.870;4.606;2024-03-08T10:08:06;100264.59;;;7.87;38.33
68822;BME280;55834;50.870;4.606;2024-03-08T10:10:34;100262.28;;;7.39;38.93
68822;BME280;55834;50.870;4.606;2024-03-08T10:13:00;100262.31;;;8.11;38.44
68822;BME280;55834;50.870;4.606;2024-03-08T10:15:28;100254.81;;;8.30;38.61
68822;BME280;55834;50.870;4.606;2024-03-08T10:17:56;100260.06;;;8.30;38.81
68822;BME280;55834;50.870;4.606;2024-03-08T10:20:22;100250.88;;;8.45;38.40
68822;BME280;55834;50.870;4.606;2024-03-08T10:22:49;100251.03;;;8.40;38.78
68822;BME280;55834;50.870;4.606;2024-03-08T10:25:15;100245.53;;;8.48;38.10
68822;BME280;55834;50.870;4.606;2024-03-08T10:27:40;100239.81;;;8.65;37.61
68822;BME280;55834;50.870;4.606;2024-03-08T10:30:10;100243.66;;;8.84;37.91
68822;BME280;55834;50.870;4.606;2024-03-08T10:32:35;100238.56;;;8.78;38.62
68822;BME280;55834;50.870;4.606;2024-03-08T10:35:01;100232.38;;;8.79;38.64
68822;BME280;55834;50.870;4.606;2024-03-08T10:37:27;100233.72;;;8.31;38.59
68822;BME280;55834;50.870;4.606;2024-03-08T10:40:04;100232.38;;;8.48;38.50
68822;BME280;55834;50.870;4.606;2024-03-08T10:42:47;100220.16;;;8.47;37.43
68822;BME280;55834;50.870;4.606;2024-03-08T10:45:40;100218.44;;;8.46;37.82
68822;BME280;55834;50.870;4.606;2024-03-08T10:48:28;100219.28;;;8.77;38.56
68822;BME280;55834;50.870;4.606;2024-03-08T10:50:57;100217.47;;;8.16;37.89
68822;BME280;55834;50.870;4.606;2024-03-08T10:53:23;100216.00;;;8.38;39.59
68822;BME280;55834;50.870;4.606;2024-03-08T10:55:49;100207.56;;;8.58;38.25
68822;BME280;55834;50.870;4.606;2024-03-08T10:58:23;100213.94;;;8.80;38.49
68822;BME280;55834;50.870;4.606;2024-03-08T11:00:52;100207.06;;;9.04;38.57
68822;BME280;55834;50.870;4.606;2024-03-08T11:06:15;100204.63;;;9.26;37.56
68822;BME280;55834;50.870;4.606;2024-03-08T11:08:41;100192.25;;;9.28;36.95
68822;BME280;55834;50.870;4.606;2024-03-08T11:11:24;100186.59;;;9.42;37.26
68822;BME280;55834;50.870;4.606;2024-03-08T11:13:53;100186.97;;;9.58;37.06
68822;BME280;55834;50.870;4.606;2024-03-08T11:18:50;100184.38;;;9.57;36.34
68822;BME280;55834;50.870;4.606;2024-03-08T11:21:18;100192.19;;;9.03;36.56
68822;BME280;55834;50.870;4.606;2024-03-08T11:23:43;100195.78;;;8.99;37.17
68822;BME280;55834;50.870;4.606;2024-03-08T11:26:20;100188.75;;;9.28;38.22
68822;BME280;55834;50.870;4.606;2024-03-08T11:28:45;100178.91;;;9.35;37.48
68822;BME280;55834;50.870;4.606;2024-03-08T11:33:39;100173.31;;;8.89;37.38
68822;BME280;55834;50.870;4.606;2024-03-08T11:36:13;100175.94;;;8.89;38.13
68822;BME280;55834;50.870;4.606;2024-03-08T11:38:48;100176.75;;;9.19;37.43
68822;BME280;55834;50.870;4.606;2024-03-08T11:41:23;100158.97;;;9.54;37.21
68822;BME280;55834;50.870;4.606;2024-03-08T11:43:50;100155.63;;;9.76;36.28
68822;BME280;55834;50.870;4.606;2024-03-08T11:46:26;100163.13;;;9.07;36.57
68822;BME280;55834;50.870;4.606;2024-03-08T11:48:54;100155.03;;;9.13;37.87
68822;BME280;55834;50.870;4.606;2024-03-08T11:51:21;100145.91;;;9.51;37.91
68822;BME280;55834;50.870;4.606;2024-03-08T11:53:49;100140.91;;;9.68;36.84
68822;BME280;55834;50.870;4.606;2024-03-08T11:56:16;100141.94;;;9.64;37.09
68822;BME280;55834;50.870;4.606;2024-03-08T11:58:42;100134.31;;;9.82;37.05
68822;BME280;55834;50.870;4.606;2024-03-08T12:01:17;100131.31;;;9.67;36.95
68822;BME280;55834;50.870;4.606;2024-03-08T12:03:43;100123.91;;;9.77;37.20
68822;BME280;55834;50.870;4.606;2024-03-08T12:06:09;100116.97;;;9.75;37.38
68822;BME280;55834;50.870;4.606;2024-03-08T12:08:35;100115.78;;;9.83;36.88
68822;BME280;55834;50.870;4.606;2024-03-08T12:11:01;100109.41;;;9.65;36.70
68822;BME280;55834;50.870;4.606;2024-03-08T12:13:31;100105.00;;;9.91;37.24
68822;BME280;55834;50.870;4.606;2024-03-08T12:16:06;100101.00;;;9.79;37.23
68822;BME280;55834;50.870;4.606;2024-03-08T12:18:37;100106.22;;;9.56;37.11
68822;BME280;55834;50.870;4.606;2024-03-08T12:21:11;100091.66;;;9.70;36.31
68822;BME280;55834;50.870;4.606;2024-03-08T12:23:38;100093.47;;;9.93;36.86
68822;BME280;55834;50.870;4.606;2024-03-08T12:26:11;100083.94;;;9.89;37.20
68822;BME280;55834;50.870;4.606;2024-03-08T12:28:39;100077.31;;;10.26;37.62
68822;BME280;55834;50.870;4.606;2024-03-08T12:31:06;100084.06;;;10.10;36.30
68822;BME280;55834;50.870;4.606;2024-03-08T12:33:36;100077.28;;;10.28;36.80
68822;BME280;55834;50.870;4.606;2024-03-08T12:36:02;100062.50;;;9.99;37.14
68822;BME280;55834;50.870;4.606;2024-03-08T12:38:32;100058.88;;;10.25;36.76
68822;BME280;55834;50.870;4.606;2024-03-08T12:41:00;100054.44;;;10.50;36.35
68822;BME280;55834;50.870;4.606;2024-03-08T12:43:29;100047.06;;;10.58;35.83
68822;BME280;55834;50.870;4.606;2024-03-08T12:45:55;100049.09;;;10.74;36.60
68822;BME280;55834;50.870;4.606;2024-03-08T12:48:21;100059.94;;;9.97;35.88
68822;BME280;55834;50.870;4.606;2024-03-08T12:50:46;100046.38;;;10.30;36.76
68822;BME280;55834;50.870;4.606;2024-03-08T12:53:13;100043.28;;;10.42;36.81
68822;BME280;55834;50.870;4.606;2024-03-08T12:55:39;100041.63;;;10.39;37.29
68822;BME280;55834;50.870;4.606;2024-03-08T12:58:06;100029.22;;;10.42;36.73
68822;BME280;55834;50.870;4.606;2024-03-08T13:00:33;100023.28;;;10.13;36.31
68822;BME280;55834;50.870;4.606;2024-03-08T13:03:01;100012.28;;;10.47;36.87
68822;BME280;55834;50.870;4.606;2024-03-08T13:05:27;100002.03;;;10.63;36.36
68822;BME280;55834;50.870;4.606;2024-03-08T13:07:53;100001.53;;;10.75;35.83